Mobile, AL

7:31 AM CDT on September 05, 2015 (GMT -0500)
Canterbury | | Change Station
CLOSE
Current Station
Personal Weather Station
Location: Mobile, AL
Elevation: 105 ft
Nearby Weather Stations

Elev 105 ft 30.62 °N, 88.19 °W | Updated 8 seconds ago

Clear
Clear
75.0 °F
Feels Like 73 °F
N
0.0
Wind Variable Wind from North
Gusts 0.0 mph

Today
High -- | Low -- °F
--% Chance of Precip.
Yesterday
High -- | Low -- °F
Precip. -- in
6:31 AM 7:11 PM
Waning Gibbous, 49% visible
Pressure 30.01 in
Visibility 10.0 miles
Clouds Few 1500 ft
Scattered Clouds 25000 ft
Heat Index 73 °F
Dew Point 74 °F
Humidity 95%
Rainfall 0.00 in
Snow Depth Not available.
UV 0 out of 12
Pollen 8.50 out of 12
Air Quality Not available.
Flu Activity Not available.
METAR KMOB 051156Z 31003KT 10SM FEW015 SCT250 23/23 A3002 RMK AO2 SLP163 TCU DSNT S T02330233 10239 20228 53011
Pressure 30.01 in
Visibility 10.0 miles
Clouds Few 1500 ft
Scattered Clouds 25000 ft
Heat Index 73 °F
Dew Point 74 °F
Humidity 95%
Rainfall 0.00 in
Snow Depth Not available.
UV 0 out of 12
Pollen 8.50 out of 12
Air Quality Not available.
Flu Activity Not available.
METAR KMOB 051156Z 31003KT 10SM FEW015 SCT250 23/23 A3002 RMK AO2 SLP163 TCU DSNT S T02330233 10239 20228 53011

10-Day Weather Forecast

×

Almanac

Astronomy

Sep. 05, 2015 Rise Set
Actual Time
Civil Twilight
Nautical Twilight
Astronomical Twilight
Moon
Length of Visible Light
Length of Day
Tomorrow will be .
, % of the Moon is Illuminated

Today's Extremes

State Highs State Lows

Community

WunderPhotos

Upload Photos

1,852,454 photos uploaded!

WunderBlogs® & News

Nearby

Air Quality

  Air Quality AQ Index Pollutant
Not available.

Snow Depth

Station Depth Elevation

Earthquake Activity

City Distance Mag. Time & Date
Minimum magnitude displayed is 2.5.

Coastal Water Temperatures

Place Temperature

Stations

Nearby Weather Stations

Station Location Temp. Windchill Dew Point Humidity Wind Precip. Elev Updated Type